Time;durP1;ratioP1;P1;durP2;ratioP2;P2;SDS_P1;SDS_P2;PMS_P1;PMS_P2;Temp;Humidity;BMP_temperature;BMP_pressure;BME280_temperature;BME280_humidity;BME280_pressure;Samples;Min_cycle;Max_cycle;Signal;HPM_P1;HPM_P2
2023/01/28 00:00:10;;;;;;;4.38;2.20;;;4.60;99.90;;;4.29;100.00;102120.66;5144140;28;20051;-72
2023/01/28 00:02:43;;;;;;;3.75;1.77;;;4.60;99.90;;;4.25;100.00;102119.53;5153857;28;20522;-71
2023/01/28 00:05:15;;;;;;;2.83;1.70;;;4.60;99.90;;;4.23;100.00;102122.75;5164586;28;20533;-71
2023/01/28 00:07:50;;;;;;;2.10;1.65;;;4.60;99.90;;;4.21;100.00;102125.22;5146815;28;20050;-71
2023/01/28 00:10:23;;;;;;;2.75;1.67;;;4.60;99.90;;;4.19;100.00;102120.72;5159644;28;20049;-71
2023/01/28 00:12:56;;;;;;;2.33;1.60;;;4.60;99.90;;;4.19;100.00;102124.19;5180698;28;20056;-72
2023/01/28 00:15:28;;;;;;;3.40;1.85;;;4.50;99.90;;;4.22;100.00;102121.84;5165025;28;20511;-72
2023/01/28 00:18:00;;;;;;;3.33;1.67;;;4.50;99.90;;;4.20;100.00;102118.25;5145865;28;20051;-71
2023/01/28 00:20:32;;;;;;;3.40;2.05;;;4.50;99.90;;;4.21;100.00;102121.72;5144887;28;20148;-71
2023/01/28 00:23:04;;;;;;;3.13;1.58;;;4.50;99.90;;;4.19;100.00;102116.44;5144805;28;20528;-71
2023/01/28 00:25:38;;;;;;;2.90;1.77;;;4.50;99.90;;;4.21;100.00;102103.66;5145349;28;20345;-72
2023/01/28 00:28:10;;;;;;;3.28;1.55;;;4.50;99.90;;;4.24;100.00;102111.66;5145358;28;20579;-74
2023/01/28 00:30:42;;;;;;;3.15;1.70;;;4.50;99.90;;;4.23;100.00;102108.16;5144802;28;20057;-71
2023/01/28 00:33:14;;;;;;;2.55;1.55;;;4.50;99.90;;;4.25;100.00;102116.03;5139070;28;20078;-72
2023/01/28 00:35:46;;;;;;;4.18;1.90;;;4.50;99.90;;;4.25;100.00;102110.88;5143897;28;20042;-71
2023/01/28 00:38:18;;;;;;;2.90;1.60;;;4.50;99.90;;;4.25;100.00;102100.56;5145055;28;20459;-71
2023/01/28 00:40:53;;;;;;;3.13;1.70;;;4.50;99.90;;;4.26;100.00;102108.41;5142646;28;20391;-71
2023/01/28 00:43:25;;;;;;;3.90;1.98;;;4.50;99.90;;;4.24;100.00;102116.81;5159920;28;20053;-71
2023/01/28 00:45:57;;;;;;;3.55;1.85;;;4.50;99.90;;;4.20;100.00;102119.94;5123769;29;20567;-71
2023/01/28 00:48:29;;;;;;;3.75;1.70;;;4.50;99.90;;;4.17;100.00;102111.91;5145052;28;20047;-71
2023/01/28 00:51:01;;;;;;;2.78;1.38;;;4.40;99.90;;;4.16;100.00;102120.44;5156353;28;20050;-71
2023/01/28 00:53:35;;;;;;;3.50;1.52;;;4.40;99.90;;;4.14;100.00;102114.25;5153388;28;20073;-71
2023/01/28 00:56:12;;;;;;;2.30;1.58;;;4.40;99.90;;;4.09;100.00;102113.88;5140355;28;20138;-71
2023/01/28 00:58:45;;;;;;;4.53;1.80;;;4.40;99.90;;;4.05;100.00;102112.75;5142267;28;20043;-73
2023/01/28 01:01:20;;;;;;;3.70;1.98;;;4.30;99.90;;;4.00;100.00;102116.63;5170772;28;20050;-71
2023/01/28 01:03:56;;;;;;;2.50;1.60;;;4.30;99.90;;;3.96;100.00;102116.22;5179089;28;20053;-71
2023/01/28 01:06:31;;;;;;;3.55;1.95;;;4.30;99.90;;;3.89;100.00;102121.66;5164743;28;20418;-72
2023/01/28 01:09:08;;;;;;;3.83;2.05;;;4.20;99.90;;;3.83;100.00;102118.56;5162867;28;20073;-72
2023/01/28 01:11:41;;;;;;;;;;;4.20;99.90;;;3.76;100.00;102117.16;5163957;28;20056;-71
2023/01/28 01:14:14;;;;;;;3.38;1.83;;;4.10;99.90;;;3.71;100.00;102110.72;5163169;28;19922;-71
2023/01/28 01:16:46;;;;;;;3.10;2.05;;;4.00;99.90;;;3.67;100.00;102113.84;5162969;28;20414;-71
2023/01/28 01:19:18;;;;;;;3.33;1.65;;;4.00;99.90;;;3.63;100.00;102106.63;5163871;28;20408;-71
2023/01/28 01:21:50;;;;;;;6.80;2.30;;;3.90;99.90;;;3.58;100.00;102113.06;5163178;28;20398;-71
2023/01/28 01:24:22;;;;;;;4.60;2.28;;;3.90;99.90;;;3.53;100.00;102105.84;5164296;28;20081;-71
2023/01/28 01:26:57;;;;;;;3.17;1.85;;;3.90;99.90;;;3.49;100.00;102111.53;5163091;28;20054;-71
2023/01/28 01:29:29;;;;;;;4.70;2.08;;;3.80;99.90;;;3.44;100.00;102111.91;5163717;28;20129;-71
2023/01/28 01:32:01;;;;;;;4.28;1.88;;;3.80;99.90;;;3.38;100.00;102109.69;5151622;28;20039;-72
2023/01/28 01:34:34;;;;;;;4.25;1.92;;;3.70;99.90;;;3.33;100.00;102116.19;5123892;29;20043;-72
2023/01/28 01:37:07;;;;;;;4.80;2.20;;;3.70;99.90;;;3.29;100.00;102114.09;5153075;28;20081;-73
2023/01/28 01:39:39;;;;;;;4.20;2.00;;;3.60;99.90;;;3.25;100.00;102125.81;5156949;28;20134;-71
2023/01/28 01:42:14;;;;;;;4.20;2.15;;;3.60;99.90;;;3.20;100.00;102121.97;5143045;28;20045;-71
2023/01/28 01:45:01;;;;;;;4.70;2.13;;;3.50;99.90;;;3.15;100.00;102122.34;5142333;28;20035;-73
2023/01/28 01:47:42;;;;;;;2.88;1.83;;;3.50;99.90;;;3.10;100.00;102113.31;5162502;28;20047;-72
2023/01/28 01:50:23;;;;;;;3.47;1.80;;;3.40;99.90;;;3.07;100.00;102118.22;5136924;28;20043;-73
2023/01/28 01:53:01;;;;;;;4.82;1.90;;;3.40;99.90;;;3.03;100.00;102117.03;5168683;28;20463;-72
2023/01/28 01:55:37;;;;;;;4.50;2.00;;;3.40;99.90;;;2.99;100.00;102123.56;5142670;28;20047;-73
2023/01/28 01:58:15;;;;;;;5.13;2.58;;;3.30;99.90;;;2.94;100.00;102121.41;5142473;28;20045;-73
2023/01/28 02:00:47;;;;;;;2.90;1.88;;;3.30;99.90;;;2.90;100.00;102124.47;5141505;28;20039;-72
2023/01/28 02:03:28;;;;;;;4.13;2.17;;;3.30;99.90;;;2.85;100.00;102125.75;5141972;28;20516;-72
2023/01/28 02:06:00;;;;;;;3.28;1.75;;;3.20;99.90;;;2.81;100.00;102132.31;5143590;28;20051;-71
2023/01/28 02:08:32;;;;;;;4.00;2.03;;;3.20;99.90;;;2.77;100.00;102135.38;5141502;28;20038;-72
2023/01/28 02:11:07;;;;;;;5.35;2.58;;;3.10;99.90;;;2.73;100.00;102130.72;5142591;28;20046;-71
2023/01/28 02:13:44;;;;;;;3.05;1.80;;;3.00;99.90;;;2.68;100.00;102134.59;5142796;28;20043;-71
2023/01/28 02:16:17;;;;;;;5.00;2.08;;;3.00;99.90;;;2.62;100.00;102134.94;5173614;28;20142;-72
2023/01/28 02:18:50;;;;;;;3.50;1.90;;;3.00;99.90;;;2.57;100.00;102140.47;5175188;28;20062;-72
2023/01/28 02:22:00;;;;;;;3.72;1.95;;;2.90;99.90;;;2.54;100.00;102137.59;5160943;28;20118;-72
2023/01/28 02:24:56;;;;;;;4.32;1.98;;;2.80;99.90;;;2.46;100.00;102129.22;5141262;28;20424;-71
2023/01/28 02:27:37;;;;;;;4.40;1.92;;;2.80;99.90;;;2.39;100.00;102142.31;5140300;28;20448;-71
2023/01/28 02:30:19;;;;;;;4.47;2.10;;;2.70;99.90;;;2.30;100.00;102139.81;5142496;28;20043;-72
2023/01/28 02:32:57;;;;;;;3.05;2.13;;;2.70;99.90;;;2.23;100.00;102140.06;5142963;28;20047;-71
2023/01/28 02:35:37;;;;;;;3.72;2.00;;;2.60;99.90;;;2.18;100.00;102144.78;5141773;28;20432;-72
2023/01/28 02:38:16;;;;;;;3.15;1.75;;;2.50;99.90;;;2.14;100.00;102144.34;5146377;28;20047;-72
2023/01/28 02:41:05;;;;;;;3.50;1.98;;;2.50;99.90;;;2.11;100.00;102144.09;5145318;28;20038;-71
2023/01/28 02:43:40;;;;;;;4.18;1.95;;;2.40;99.90;;;2.06;100.00;102142.78;5146183;28;20046;-73
2023/01/28 02:49:16;;;;;;;3.13;1.73;;;2.30;99.90;;;1.93;100.00;102152.72;5145621;28;20054;-72
2023/01/28 02:52:04;;;;;;;2.60;1.80;;;2.30;99.90;;;1.85;100.00;102149.44;5147003;28;20053;-72
2023/01/28 02:54:44;;;;;;;4.43;2.22;;;2.20;99.90;;;1.79;100.00;102148.91;5146877;28;20444;-72
2023/01/28 02:57:30;;;;;;;4.85;2.13;;;2.20;99.90;;;1.72;100.00;102156.81;5146823;28;20053;-72
2023/01/28 03:00:11;;;;;;;4.32;2.00;;;2.10;99.90;;;1.65;100.00;102157.91;5145233;28;20133;-71
2023/01/28 03:02:54;;;;;;;4.15;2.20;;;2.00;99.90;;;1.58;100.00;102160.69;5145582;28;20467;-72
2023/01/28 03:05:31;;;;;;;4.70;2.50;;;1.90;99.90;;;1.52;100.00;102158.44;5145676;28;20050;-71
2023/01/28 03:09:21;;;;;;;4.85;2.35;;;1.90;99.90;;;1.48;100.00;102166.63;5145369;28;20053;-71
2023/01/28 03:36:56;;;;;;;4.28;2.38;;;1.90;99.90;;;1.55;100.00;102180.94;5143673;28;20053;-72
2023/01/28 03:39:38;;;;;;;4.53;2.30;;;1.90;99.90;;;1.52;100.00;102183.25;5144271;28;20050;-71
2023/01/28 03:42:14;;;;;;;5.28;2.38;;;1.90;99.90;;;1.51;100.00;102192.63;5142560;28;20051;-71
2023/01/28 03:45:00;;;;;;;4.00;2.20;;;1.90;99.90;;;1.49;100.00;102188.09;5176919;28;20055;-71
2023/01/28 03:47:33;;;;;;;5.30;2.60;;;1.80;99.90;;;1.49;100.00;102185.53;5145586;28;20381;-72
2023/01/28 03:50:09;;;;;;;6.00;2.80;;;1.90;99.90;;;1.48;100.00;102186.28;5141936;28;20042;-71
2023/01/28 03:53:11;;;;;;;4.70;2.25;;;1.80;99.90;;;1.47;100.00;102180.25;5166675;28;20514;-71
2023/01/28 03:55:52;;;;;;;4.78;2.30;;;1.80;99.90;;;1.46;100.00;102188.72;5168639;28;20055;-71
2023/01/28 03:58:45;;;;;;;4.10;2.08;;;1.80;99.90;;;1.43;100.00;102187.53;5145412;28;20144;-71
2023/01/28 04:01:18;;;;;;;4.43;2.10;;;1.80;99.90;;;1.35;100.00;102191.94;5144954;28;20043;-72
2023/01/28 04:03:50;;;;;;;5.63;2.17;;;1.70;99.90;;;1.30;100.00;102195.75;5160354;28;20059;-71
2023/01/28 04:06:32;;;;;;;5.18;2.00;;;1.70;99.90;;;1.26;100.00;102199.72;5144012;28;20054;-71
2023/01/28 04:09:22;;;;;;;5.35;2.22;;;1.70;99.90;;;1.22;100.00;102201.84;5144896;28;20049;-72
2023/01/28 04:12:00;;;;;;;5.00;2.17;;;1.60;99.90;;;1.19;100.00;102211.84;5160076;28;20050;-71
2023/01/28 04:14:39;;;;;;;7.07;3.00;;;1.60;99.90;;;1.17;100.00;102203.97;5143924;28;20559;-72
2023/01/28 04:17:29;;;;;;;6.05;2.70;;;1.50;99.90;;;1.16;100.00;102207.28;5143212;28;20049;-71
2023/01/28 04:20:02;;;;;;;5.28;2.83;;;1.60;99.90;;;1.17;100.00;102219.38;5175349;28;20035;-72
2023/01/28 04:22:35;;;;;;;6.60;2.35;;;1.50;99.90;;;1.18;100.00;102203.22;5143638;28;20554;-71
2023/01/28 04:25:10;;;;;;;6.22;2.53;;;1.60;99.90;;;1.19;100.00;102212.75;5143524;28;20381;-71
2023/01/28 04:27:42;;;;;;;5.95;2.40;;;1.60;99.90;;;1.22;100.00;102217.25;5173272;28;20042;-71
2023/01/28 04:30:23;;;;;;;6.68;2.88;;;1.60;99.90;;;1.22;100.00;102202.72;5162093;28;20045;-72
2023/01/28 04:33:18;;;;;;;5.40;2.80;;;1.60;99.90;;;1.25;100.00;102208.19;5161569;28;20043;-71
2023/01/28 04:35:56;;;;;;;8.07;3.63;;;1.60;99.90;;;1.25;100.00;102208.19;5144903;28;20130;-72
2023/01/28 04:39:05;;;;;;;6.28;3.00;;;1.60;99.90;;;1.25;100.00;102204.72;5142992;28;20054;-71
2023/01/28 04:41:44;;;;;;;6.63;3.13;;;1.60;99.90;;;1.29;100.00;102211.94;5144730;28;20042;-71
2023/01/28 04:44:24;;;;;;;;;;;1.70;99.90;;;1.30;100.00;102216.28;5142801;28;20053;-71
2023/01/28 04:47:07;;;;;;;6.85;2.97;;;1.60;99.90;;;1.30;100.00;102221.44;5143500;28;20008;-71
2023/01/28 04:49:47;;;;;;;6.55;2.95;;;1.70;99.90;;;1.32;100.00;102222.50;5175485;28;20050;-71
2023/01/28 04:52:31;;;;;;;8.02;3.20;;;1.70;99.90;;;1.37;100.00;102223.84;5176205;28;20054;-71
2023/01/28 04:55:11;;;;;;;8.50;3.45;;;1.70;99.90;;;1.42;100.00;102231.97;5144270;28;20235;-71
2023/01/28 04:57:47;;;;;;;8.02;3.85;;;1.80;99.90;;;1.45;100.00;102227.13;5175194;28;20054;-71
2023/01/28 05:00:20;;;;;;;7.72;3.35;;;1.80;99.90;;;1.48;100.00;102233.44;5159309;28;20039;-71
2023/01/28 05:02:52;;;;;;;7.72;3.55;;;1.90;99.90;;;1.53;100.00;102231.31;5144409;28;20558;-72
2023/01/28 05:05:25;;;;;;;7.28;3.22;;;1.90;99.90;;;1.56;100.00;102226.44;5173074;28;20050;-72
2023/01/28 05:08:03;;;;;;;7.95;4.05;;;1.90;99.90;;;1.60;100.00;102228.56;5143172;28;20141;-72
2023/01/28 05:10:35;;;;;;;9.00;3.70;;;2.00;99.90;;;1.64;100.00;102228.09;5142996;28;20049;-71
2023/01/28 05:13:09;;;;;;;8.25;3.60;;;2.00;99.90;;;1.65;100.00;102229.91;5144553;28;20125;-71
2023/01/28 05:15:41;;;;;;;7.53;3.38;;;2.00;99.90;;;1.67;100.00;102230.94;5143015;28;20043;-72
2023/01/28 05:18:14;;;;;;;7.65;3.33;;;2.00;99.90;;;1.68;100.00;102230.16;5202994;23;20082;-84
2023/01/28 05:20:51;;;;;;;6.57;3.60;;;2.10;99.90;;;1.70;100.00;102236.38;5181882;28;20088;-83
2023/01/28 05:23:24;;;;;;;8.10;3.33;;;2.10;99.90;;;1.70;100.00;102241.53;5208587;28;20515;-84
2023/01/28 05:26:00;;;;;;;7.47;3.60;;;2.10;99.90;;;1.71;100.00;102239.84;5208813;28;20061;-84
2023/01/28 05:28:34;;;;;;;6.97;3.45;;;2.10;99.90;;;1.71;100.00;102234.72;5207953;28;20045;-85
2023/01/28 05:31:07;;;;;;;9.05;3.95;;;2.10;99.90;;;1.71;100.00;102234.72;5208355;28;20038;-84
2023/01/28 05:33:39;;;;;;;8.10;4.05;;;2.10;99.90;;;1.71;100.00;102235.63;5192648;28;20106;-85
2023/01/28 05:36:14;;;;;;;8.32;3.80;;;2.10;99.90;;;1.74;100.00;102238.44;5187257;28;20467;-86
2023/01/28 05:38:47;;;;;;;7.68;3.80;;;2.10;99.90;;;1.77;100.00;102245.56;5186858;28;20570;-86
2023/01/28 05:41:19;;;;;;;9.18;3.83;;;2.10;99.90;;;1.78;100.00;102235.41;5186114;28;20042;-84
2023/01/28 05:43:55;;;;;;;8.82;3.70;;;2.20;99.90;;;1.81;100.00;102233.13;5186823;28;20042;-85
2023/01/28 05:46:56;;;;;;;7.43;3.97;;;2.10;99.90;;;1.83;100.00;102239.31;5171047;28;20050;-84
2023/01/28 05:49:55;;;;;;;8.45;3.65;;;2.20;99.90;;;1.85;100.00;102232.66;5172110;28;20054;-85
2023/01/28 05:52:48;;;;;;;9.45;3.92;;;2.20;99.90;;;1.88;100.00;102248.34;5186282;28;20073;-84
2023/01/28 05:55:35;;;;;;;7.75;4.05;;;2.30;99.90;;;1.92;100.00;102251.22;5203807;28;20050;-81
2023/01/28 05:58:07;;;;;;;8.45;3.63;;;2.20;99.90;;;1.92;100.00;102253.78;5187746;28;20053;-85
2023/01/28 06:00:41;;;;;;;8.45;4.13;;;2.30;99.90;;;1.92;100.00;102248.63;5190235;28;20388;-84
2023/01/28 06:03:13;;;;;;;8.05;3.90;;;2.30;99.90;;;1.96;100.00;102264.50;5189369;28;20430;-84
2023/01/28 06:05:45;;;;;;;7.28;3.33;;;2.30;99.90;;;1.96;100.00;102253.31;5206473;28;20046;-84
2023/01/28 06:08:17;;;;;;;8.40;3.72;;;2.30;99.90;;;2.03;100.00;102258.25;5207300;28;20042;-85
2023/01/28 06:10:50;;;;;;;6.78;3.65;;;2.40;99.90;;;2.03;100.00;102263.41;5205475;28;20563;-85
2023/01/28 06:13:22;;;;;;;6.10;3.70;;;2.40;99.90;;;2.03;100.00;102263.41;5188603;28;20416;-85
2023/01/28 06:16:14;;;;;;;8.55;3.58;;;2.40;99.90;;;2.05;100.00;102267.00;5192238;28;20053;-85
2023/01/28 06:19:04;;;;;;;6.93;3.33;;;2.40;99.90;;;2.05;100.00;102262.78;5187989;28;20196;-85
2023/01/28 06:21:36;;;;;;;8.13;3.83;;;2.40;99.90;;;2.05;100.00;102267.91;5204693;28;20052;-86
2023/01/28 06:24:08;;;;;;;8.43;3.30;;;2.40;99.90;;;2.08;100.00;102273.31;5201838;28;20038;-85
2023/01/28 06:26:40;;;;;;;6.35;3.33;;;2.50;99.90;;;2.12;100.00;102271.97;5186043;28;20052;-86
2023/01/28 06:29:12;;;;;;;6.38;3.13;;;2.50;99.90;;;2.14;100.00;102265.28;5185854;28;20049;-84
2023/01/28 06:31:46;;;;;;;7.13;3.58;;;2.50;99.90;;;2.13;100.00;102261.78;5203132;28;20050;-86
2023/01/28 06:34:18;;;;;;;6.18;3.05;;;2.50;99.90;;;2.20;100.00;102273.56;5186703;28;20092;-86
2023/01/28 06:36:52;;;;;;;5.03;2.75;;;2.50;99.90;;;2.21;100.00;102270.22;5186829;28;20050;-84
2023/01/28 06:39:25;;;;;;;5.20;2.60;;;2.50;99.90;;;2.23;100.00;102267.81;5186509;28;20057;-86
2023/01/28 06:41:58;;;;;;;6.30;2.92;;;2.60;99.90;;;2.23;100.00;102276.44;5188444;28;20053;-86
2023/01/28 06:44:30;;;;;;;6.88;3.03;;;2.60;99.90;;;2.24;100.00;102274.75;5222528;28;20034;-86
2023/01/28 06:47:03;;;;;;;5.78;3.08;;;2.60;99.90;;;2.25;100.00;102277.47;5204073;28;20037;-86
2023/01/28 06:49:37;;;;;;;4.93;2.83;;;2.60;99.90;;;2.25;100.00;102282.59;5204642;28;20053;-87
2023/01/28 06:52:14;;;;;;;5.90;2.78;;;2.60;99.90;;;2.27;100.00;102285.31;5177229;28;20070;-87
2023/01/28 06:54:46;;;;;;;6.32;3.15;;;2.60;99.90;;;2.28;100.00;102282.91;5192227;28;20046;-88
2023/01/28 06:57:19;;;;;;;7.25;2.92;;;2.60;99.90;;;2.31;100.00;102279.69;5192968;28;20113;-89
2023/01/28 06:59:52;;;;;;;5.43;2.83;;;2.70;99.90;;;2.32;100.00;102279.81;5192902;28;20046;-90
2023/01/28 07:05:41;;;;;;;4.00;2.40;;;2.70;99.90;;;2.34;100.00;102278.28;5217316;28;20401;-84
2023/01/28 07:08:13;;;;;;;6.82;3.40;;;2.70;99.90;;;2.35;100.00;102274.97;5211480;28;20041;-84
2023/01/28 07:10:45;;;;;;;6.63;3.20;;;2.70;99.90;;;2.35;100.00;102282.69;5195231;28;20050;-85
2023/01/28 07:13:17;;;;;;;8.05;3.22;;;2.70;99.90;;;2.36;100.00;102279.34;5193866;28;20049;-84
2023/01/28 07:15:49;;;;;;;6.75;2.92;;;2.70;99.90;;;2.39;100.00;102276.13;5193777;28;20046;-84
2023/01/28 07:18:23;;;;;;;5.97;2.80;;;2.80;99.90;;;2.42;100.00;102285.06;5193560;28;20145;-84
2023/01/28 07:20:55;;;;;;;6.65;2.83;;;2.70;99.90;;;2.43;100.00;102286.88;5211164;28;20085;-83
2023/01/28 07:23:27;;;;;;;6.65;3.05;;;2.80;99.90;;;2.47;100.00;102292.28;5213863;28;20038;-85
2023/01/28 07:26:01;;;;;;;4.60;2.75;;;2.80;99.90;;;2.48;100.00;102286.34;5201146;28;20042;-84
2023/01/28 07:28:33;;;;;;;6.28;2.80;;;2.80;99.90;;;2.51;100.00;102291.81;5209662;28;20042;-84
2023/01/28 07:31:05;;;;;;;4.40;2.55;;;2.80;99.90;;;2.52;100.00;102286.78;5207505;28;20077;-84
2023/01/28 07:33:39;;;;;;;5.63;2.55;;;2.80;99.90;;;2.53;100.00;102286.00;5194704;28;20057;-84
2023/01/28 07:36:11;;;;;;;5.90;2.63;;;2.80;99.90;;;2.53;100.00;102291.16;5209443;28;20058;-83
2023/01/28 07:38:43;;;;;;;5.10;2.50;;;2.90;99.90;;;2.55;100.00;102292.22;5210449;28;20046;-83
2023/01/28 07:41:15;;;;;;;5.32;2.65;;;2.90;99.90;;;2.52;100.00;102293.59;5194056;28;20042;-84
2023/01/28 07:43:47;;;;;;;6.00;2.92;;;2.90;99.90;;;2.51;100.00;102302.09;5209796;28;20053;-84
2023/01/28 07:46:19;;;;;;;7.40;3.00;;;2.80;99.90;;;2.48;100.00;102302.75;5209612;28;20048;-83
2023/01/28 07:48:53;;;;;;;6.47;2.53;;;2.80;99.90;;;2.50;100.00;102301.19;5193289;28;20148;-83
2023/01/28 07:51:25;;;;;;;5.72;2.60;;;2.80;99.90;;;2.51;100.00;102300.44;5194855;28;20515;-83
2023/01/28 07:53:57;;;;;;;6.40;3.03;;;2.80;99.90;;;2.52;100.00;102298.75;5210908;28;20045;-83
2023/01/28 07:56:31;;;;;;;5.50;2.80;;;2.80;99.90;;;2.53;100.00;102295.41;5209664;28;20496;-83
2023/01/28 07:59:03;;;;;;;6.38;3.20;;;2.80;99.90;;;2.52;100.00;102299.66;5192580;28;20046;-83
2023/01/28 08:01:35;;;;;;;6.57;2.85;;;2.80;99.90;;;2.55;100.00;102301.63;5192246;28;20096;-83
2023/01/28 08:04:09;;;;;;;6.18;3.17;;;2.80;99.90;;;2.57;100.00;102298.41;5209674;28;20049;-83
2023/01/28 08:06:41;;;;;;;7.22;2.88;;;2.90;99.90;;;2.59;100.00;102293.38;5208601;28;20054;-83
2023/01/28 08:09:13;;;;;;;7.45;3.10;;;2.90;99.90;;;2.61;100.00;102299.59;5207583;28;20088;-83
2023/01/28 08:11:45;;;;;;;6.40;3.00;;;2.90;99.90;;;2.61;100.00;102294.47;5192374;28;20661;-83
2023/01/28 08:14:17;;;;;;;7.43;3.10;;;2.90;99.90;;;2.64;100.00;102299.88;5190574;28;20053;-87
2023/01/28 08:16:49;;;;;;;5.13;2.50;;;2.90;99.90;;;2.66;100.00;102300.91;5188649;28;20146;-86
2023/01/28 08:19:22;;;;;;;6.43;2.95;;;3.00;99.90;;;2.71;100.00;102309.94;5191074;28;20050;-85
2023/01/28 08:21:54;;;;;;;5.93;2.88;;;3.00;99.90;;;2.73;100.00;102310.97;5187759;28;20042;-88
2023/01/28 08:24:26;;;;;;;4.90;2.72;;;3.00;99.90;;;2.74;100.00;102312.81;5187526;28;20053;-88
2023/01/28 08:26:58;;;;;;;5.53;2.88;;;3.00;99.90;;;2.77;100.00;102313.09;5203101;28;20046;-88
2023/01/28 08:29:30;;;;;;;7.50;3.63;;;3.10;99.90;;;2.78;100.00;102320.03;5187443;28;20050;-88
2023/01/28 08:32:02;;;;;;;7.78;3.22;;;3.10;99.90;;;2.80;100.00;102322.75;5206548;28;20504;-87
2023/01/28 08:34:36;;;;;;;7.50;3.78;;;3.10;99.90;;;2.81;100.00;102333.22;5203481;28;20459;-87
2023/01/28 08:37:08;;;;;;;7.32;3.60;;;3.10;99.90;;;2.81;100.00;102328.06;5189312;28;20467;-89
2023/01/28 08:39:40;;;;;;;6.95;3.45;;;3.20;99.90;;;2.85;100.00;102331.78;5198920;28;20050;-88
2023/01/28 08:42:12;;;;;;;5.57;3.00;;;3.20;99.90;;;2.85;100.00;102326.63;5209942;28;20033;-87
2023/01/28 08:44:44;;;;;;;9.52;3.80;;;3.20;99.90;;;2.96;100.00;102323.38;5213852;28;20048;-83
2023/01/28 08:47:16;;;;;;;8.85;3.60;;;3.30;99.90;;;3.03;100.00;102327.41;5212960;28;20499;-87
2023/01/28 08:49:49;;;;;;;7.93;3.75;;;3.30;99.90;;;3.01;100.00;102323.78;5208554;28;20041;-87
2023/01/28 08:52:21;;;;;;;6.85;3.50;;;3.30;99.90;;;3.03;100.00;102323.13;5209609;28;20046;-87
2023/01/28 08:54:53;;;;;;;7.35;2.90;;;3.40;99.90;;;3.02;100.00;102334.22;5226352;28;20053;-88
2023/01/28 08:57:26;;;;;;;10.10;3.83;;;3.40;99.90;;;3.01;100.00;102334.09;5209866;28;20057;-85
2023/01/28 08:59:58;;;;;;;7.85;3.22;;;3.40;99.90;;;3.03;100.00;102337.69;5208484;28;20048;-87
2023/01/28 09:02:30;;;;;;;6.47;2.97;;;3.40;99.90;;;3.01;100.00;102340.16;5227927;28;20526;-86
2023/01/28 09:05:04;;;;;;;7.65;3.42;;;3.40;99.90;;;3.00;100.00;102343.50;5213562;28;20064;-87
2023/01/28 09:07:37;;;;;;;5.03;3.00;;;3.40;99.90;;;3.01;100.00;102344.41;5213207;28;20061;-84
2023/01/28 09:10:11;;;;;;;8.75;3.33;;;3.30;99.90;;;3.01;100.00;102355.59;5231375;28;20050;-86
2023/01/28 09:12:43;;;;;;;6.88;3.03;;;3.30;99.90;;;3.02;100.00;102353.94;5215905;28;20041;-88
2023/01/28 09:15:15;;;;;;;9.88;3.45;;;3.30;99.90;;;3.04;100.00;102349.81;5210717;28;20045;-88
2023/01/28 09:17:47;;;;;;;6.95;3.45;;;3.30;99.90;;;3.06;100.00;102353.41;5197409;28;20045;-87
2023/01/28 09:20:21;;;;;;;6.45;3.20;;;3.40;99.90;;;3.04;100.00;102355.88;5201065;28;20060;-87
2023/01/28 09:22:53;;;;;;;6.60;3.20;;;3.40;99.90;;;3.01;100.00;102359.84;5205815;28;20045;-86
2023/01/28 09:25:25;;;;;;;6.18;3.03;;;3.40;99.90;;;3.07;100.00;102370.72;5225543;28;20525;-87
2023/01/28 09:27:58;;;;;;;6.13;3.03;;;3.40;99.90;;;3.15;100.00;102364.56;5201633;28;20050;-86
2023/01/28 09:30:30;;;;;;;5.93;2.75;;;3.50;99.90;;;3.34;100.00;102378.31;5216744;28;20079;-84
2023/01/28 09:33:02;;;;;;;7.25;3.10;;;3.70;99.90;;;3.50;100.00;102381.47;5218779;28;20041;-86
2023/01/28 09:35:36;;;;;;;6.40;3.35;;;3.80;99.90;;;3.58;100.00;102383.81;5234826;28;20068;-86
2023/01/28 09:38:08;;;;;;;6.82;3.08;;;3.90;99.90;;;3.59;100.00;102385.66;5215935;28;20060;-86
2023/01/28 09:40:43;;;;;;;5.63;2.97;;;3.90;99.90;;;3.54;100.00;102392.97;5229282;28;20052;-85
2023/01/28 09:43:41;;;;;;;6.30;3.05;;;3.90;99.90;;;3.46;100.00;102397.47;5227085;28;20056;-85
2023/01/28 09:46:15;;;;;;;8.00;3.65;;;3.80;99.90;;;3.36;100.00;102402.56;5209859;28;20049;-85
2023/01/28 09:48:51;;;;;;;6.80;3.40;;;3.70;99.90;;;3.31;100.00;102403.81;5193445;28;20411;-86
2023/01/28 09:51:36;;;;;;;6.70;3.05;;;3.70;99.90;;;3.30;100.00;102402.00;5211343;28;20467;-86
2023/01/28 09:54:24;;;;;;;5.07;3.42;;;3.60;99.90;;;3.24;100.00;102409.19;5199700;28;20056;-84
2023/01/28 09:57:04;;;;;;;5.85;2.92;;;3.60;99.90;;;3.20;100.00;102409.69;5195308;28;20078;-86
2023/01/28 09:59:37;;;;;;;7.60;3.63;;;3.60;99.90;;;3.13;100.00;102407.31;5204028;28;20092;-86
2023/01/28 10:02:37;;;;;;;7.35;3.60;;;3.50;99.90;;;3.08;100.00;102403.44;5214165;28;20044;-86
2023/01/28 10:05:20;;;;;;;7.25;3.17;;;3.40;99.90;;;3.07;100.00;102406.78;5242728;28;20061;-84
2023/01/28 10:08:03;;;;;;;9.38;4.07;;;3.40;99.90;;;3.09;100.00;102431.00;5214727;28;20050;-86
2023/01/28 10:10:43;;;;;;;6.20;3.25;;;3.50;99.90;;;3.08;100.00;102419.81;5212063;28;20049;-86
2023/01/28 10:13:28;;;;;;;6.18;2.95;;;3.40;99.90;;;3.10;100.00;102423.41;5228891;28;20053;-84
2023/01/28 10:16:16;;;;;;;8.02;3.20;;;3.40;99.90;;;3.12;100.00;102419.28;5229448;28;20049;-87
2023/01/28 10:18:55;;;;;;;6.13;3.03;;;3.40;99.90;;;3.14;100.00;102424.59;5206456;28;20084;-87
2023/01/28 10:21:36;;;;;;;5.70;2.70;;;3.50;99.90;;;3.11;100.00;102414.91;5231585;28;20063;-86
2023/01/28 10:24:30;;;;;;;7.82;3.33;;;3.50;99.90;;;3.15;100.00;102416.09;5237323;28;20103;-85
2023/01/28 10:27:03;;;;;;;6.07;2.58;;;3.40;99.90;;;3.15;99.88;102419.59;5221314;28;20041;-86
2023/01/28 10:29:38;;;;;;;7.65;3.67;;;3.50;99.90;;;3.16;99.47;102420.50;5233470;28;20107;-87
2023/01/28 10:32:22;;;;;;;5.32;3.00;;;3.50;99.90;;;3.13;99.56;102412.47;5215772;28;20053;-86
2023/01/28 10:34:58;;;;;;;5.70;3.20;;;3.50;99.90;;;3.17;98.71;102430.03;5212977;28;20068;-86
2023/01/28 10:37:35;;;;;;;6.40;3.33;;;3.50;99.90;;;3.13;98.93;102427.94;5213402;28;20346;-86
2023/01/28 10:40:15;;;;;;;6.10;3.03;;;3.50;99.90;;;3.12;98.76;102424.44;5212684;28;20537;-87
2023/01/28 10:42:47;;;;;;;7.72;3.15;;;3.50;99.90;;;3.14;98.60;102429.75;5228655;28;20068;-85
2023/01/28 10:45:24;;;;;;;4.68;3.40;;;3.50;99.90;;;3.16;98.80;102433.38;5211185;28;20439;-86
2023/01/28 10:48:03;;;;;;;4.72;2.90;;;3.50;99.90;;;3.16;98.81;102428.22;5211505;28;20053;-86
2023/01/28 10:50:36;;;;;;;5.25;2.70;;;3.50;99.90;;;3.17;98.36;102430.03;5212436;28;20063;-86
2023/01/28 10:53:08;;;;;;;6.50;3.00;;;3.50;99.90;;;3.15;97.60;102427.31;5205142;28;20060;-86
2023/01/28 10:55:51;;;;;;;6.03;3.20;;;3.50;99.90;;;3.10;96.80;102417.34;5201077;28;20052;-86
2023/01/28 10:58:27;;;;;;;4.32;2.80;;;3.40;99.90;;;3.09;96.82;102415.56;5216766;28;20041;-84
2023/01/28 11:01:01;;;;;;;5.40;2.90;;;3.40;99.90;;;3.32;100.00;102420.19;5201732;28;20045;-86
2023/01/28 11:03:34;;;;;;;6.88;3.22;;;3.60;99.90;;;3.37;98.43;102424.97;5205307;28;20049;-85
2023/01/28 11:06:13;;;;;;;5.63;2.60;;;3.70;99.90;;;3.38;97.54;102419.06;5208311;28;20084;-86
2023/01/28 11:08:45;;;;;;;6.70;3.13;;;3.70;99.90;;;3.32;96.01;102418.50;5208518;28;20434;-85
2023/01/28 11:11:26;;;;;;;5.57;3.40;;;3.70;99.90;;;3.32;96.32;102426.25;5207700;28;20422;-84
2023/01/28 11:14:00;;;;;;;6.53;2.60;;;3.70;99.90;;;3.31;95.90;102424.44;5232931;28;20042;-86
2023/01/28 11:16:32;;;;;;;5.10;2.72;;;3.60;99.90;;;3.30;95.24;102417.47;5236044;23;20080;-81
2023/01/28 11:19:09;;;;;;;4.93;2.47;;;3.60;99.90;;;3.32;95.27;102425.34;5157248;28;20058;-86
2023/01/28 11:21:49;;;;;;;4.63;2.80;;;3.60;99.90;;;3.38;94.93;102423.31;5181078;28;20058;-86
2023/01/28 11:24:24;;;;;;;5.82;3.13;;;3.70;99.90;;;3.36;94.59;102428.34;5209223;28;20057;-86
2023/01/28 11:26:59;;;;;;;6.22;3.42;;;3.70;99.90;;;3.38;94.32;102423.31;5201534;28;20053;-86
2023/01/28 11:29:33;;;;;;;6.57;3.38;;;3.70;99.90;;;3.37;93.98;102424.09;5193901;28;20075;-86